sensor_id;sensor_type;location;lat;lon;timestamp;P1;durP1;ratioP1;P2;durP2;ratioP2
3433;SDS011;1730;41.932;25.548;2022-08-23T00:00:00;13.47;;;12.20;;
3433;SDS011;1730;41.932;25.548;2022-08-23T00:02:26;12.60;;;11.60;;
3433;SDS011;1730;41.932;25.548;2022-08-23T00:04:52;13.57;;;12.47;;
3433;SDS011;1730;41.932;25.548;2022-08-23T00:07:17;13.07;;;11.93;;
3433;SDS011;1730;41.932;25.548;2022-08-23T00:09:43;15.60;;;13.30;;
3433;SDS011;1730;41.932;25.548;2022-08-23T00:12:10;13.97;;;12.70;;
3433;SDS011;1730;41.932;25.548;2022-08-23T00:14:43;14.33;;;13.00;;
3433;SDS011;1730;41.932;25.548;2022-08-23T00:17:12;14.93;;;12.97;;
3433;SDS011;1730;41.932;25.548;2022-08-23T00:19:39;13.20;;;12.20;;
3433;SDS011;1730;41.932;25.548;2022-08-23T00:22:05;14.20;;;13.10;;
3433;SDS011;1730;41.932;25.548;2022-08-23T00:24:31;13.70;;;12.30;;
3433;SDS011;1730;41.932;25.548;2022-08-23T00:26:58;13.20;;;11.90;;
3433;SDS011;1730;41.932;25.548;2022-08-23T00:32:00;13.23;;;12.00;;
3433;SDS011;1730;41.932;25.548;2022-08-23T00:34:26;13.23;;;11.90;;
3433;SDS011;1730;41.932;25.548;2022-08-23T00:36:53;13.40;;;12.13;;
3433;SDS011;1730;41.932;25.548;2022-08-23T00:39:19;13.47;;;12.27;;
3433;SDS011;1730;41.932;25.548;2022-08-23T00:41:46;13.97;;;12.77;;
3433;SDS011;1730;41.932;25.548;2022-08-23T00:44:46;11.93;;;11.03;;
3433;SDS011;1730;41.932;25.548;2022-08-23T00:47:23;12.03;;;10.97;;
3433;SDS011;1730;41.932;25.548;2022-08-23T00:52:45;11.27;;;10.27;;
3433;SDS011;1730;41.932;25.548;2022-08-23T00:55:23;13.23;;;11.87;;
3433;SDS011;1730;41.932;25.548;2022-08-23T00:57:49;11.83;;;10.70;;
3433;SDS011;1730;41.932;25.548;2022-08-23T01:00:16;11.20;;;10.13;;
3433;SDS011;1730;41.932;25.548;2022-08-23T01:02:43;11.70;;;10.40;;
3433;SDS011;1730;41.932;25.548;2022-08-23T01:05:12;13.33;;;10.57;;
3433;SDS011;1730;41.932;25.548;2022-08-23T01:10:24;10.47;;;9.47;;
3433;SDS011;1730;41.932;25.548;2022-08-23T01:13:01;12.90;;;9.90;;
3433;SDS011;1730;41.932;25.548;2022-08-23T01:15:38;12.23;;;10.23;;
3433;SDS011;1730;41.932;25.548;2022-08-23T01:18:11;11.90;;;10.50;;
3433;SDS011;1730;41.932;25.548;2022-08-23T01:23:20;11.70;;;10.60;;
3433;SDS011;1730;41.932;25.548;2022-08-23T01:26:07;12.50;;;11.50;;
3433;SDS011;1730;41.932;25.548;2022-08-23T01:28:33;12.00;;;10.90;;
3433;SDS011;1730;41.932;25.548;2022-08-23T01:30:59;11.87;;;10.87;;
3433;SDS011;1730;41.932;25.548;2022-08-23T01:33:25;12.87;;;11.77;;
3433;SDS011;1730;41.932;25.548;2022-08-23T01:35:53;14.73;;;13.40;;
3433;SDS011;1730;41.932;25.548;2022-08-23T01:38:21;14.77;;;13.20;;
3433;SDS011;1730;41.932;25.548;2022-08-23T01:40:47;15.00;;;13.50;;
3433;SDS011;1730;41.932;25.548;2022-08-23T01:43:14;14.80;;;13.13;;
3433;SDS011;1730;41.932;25.548;2022-08-23T01:45:43;15.50;;;14.00;;
3433;SDS011;1730;41.932;25.548;2022-08-23T01:48:08;13.93;;;12.60;;
3433;SDS011;1730;41.932;25.548;2022-08-23T01:50:34;15.07;;;13.77;;
3433;SDS011;1730;41.932;25.548;2022-08-23T01:53:00;16.67;;;14.30;;
3433;SDS011;1730;41.932;25.548;2022-08-23T01:55:25;15.47;;;14.17;;
3433;SDS011;1730;41.932;25.548;2022-08-23T01:57:52;15.83;;;14.47;;
3433;SDS011;1730;41.932;25.548;2022-08-23T02:00:26;18.43;;;14.90;;
3433;SDS011;1730;41.932;25.548;2022-08-23T02:02:57;17.07;;;15.27;;
3433;SDS011;1730;41.932;25.548;2022-08-23T02:05:23;17.67;;;15.70;;
3433;SDS011;1730;41.932;25.548;2022-08-23T02:07:50;18.23;;;16.40;;
3433;SDS011;1730;41.932;25.548;2022-08-23T02:10:16;19.80;;;17.50;;
3433;SDS011;1730;41.932;25.548;2022-08-23T02:12:43;20.13;;;18.13;;
3433;SDS011;1730;41.932;25.548;2022-08-23T02:15:09;19.47;;;17.63;;
3433;SDS011;1730;41.932;25.548;2022-08-23T02:17:35;20.13;;;17.27;;
3433;SDS011;1730;41.932;25.548;2022-08-23T02:20:01;19.73;;;17.73;;
3433;SDS011;1730;41.932;25.548;2022-08-23T02:22:27;22.13;;;19.17;;
3433;SDS011;1730;41.932;25.548;2022-08-23T02:24:53;23.50;;;19.23;;
3433;SDS011;1730;41.932;25.548;2022-08-23T02:27:19;24.23;;;20.90;;
3433;SDS011;1730;41.932;25.548;2022-08-23T02:29:45;24.03;;;20.50;;
3433;SDS011;1730;41.932;25.548;2022-08-23T02:32:12;22.77;;;19.47;;
3433;SDS011;1730;41.932;25.548;2022-08-23T02:34:41;23.77;;;21.40;;
3433;SDS011;1730;41.932;25.548;2022-08-23T02:37:08;21.83;;;19.73;;
3433;SDS011;1730;41.932;25.548;2022-08-23T02:39:34;21.10;;;19.00;;
3433;SDS011;1730;41.932;25.548;2022-08-23T02:42:00;22.67;;;20.30;;
3433;SDS011;1730;41.932;25.548;2022-08-23T02:44:26;22.03;;;19.53;;
3433;SDS011;1730;41.932;25.548;2022-08-23T02:46:52;28.73;;;21.30;;
3433;SDS011;1730;41.932;25.548;2022-08-23T02:49:18;28.03;;;18.53;;
3433;SDS011;1730;41.932;25.548;2022-08-23T02:51:43;22.87;;;19.97;;
3433;SDS011;1730;41.932;25.548;2022-08-23T02:54:10;23.70;;;20.60;;
3433;SDS011;1730;41.932;25.548;2022-08-23T02:56:36;22.53;;;20.13;;
3433;SDS011;1730;41.932;25.548;2022-08-23T02:59:02;22.43;;;20.13;;
3433;SDS011;1730;41.932;25.548;2022-08-23T03:01:30;21.63;;;19.33;;
3433;SDS011;1730;41.932;25.548;2022-08-23T03:03:58;23.10;;;20.47;;
3433;SDS011;1730;41.932;25.548;2022-08-23T03:06:24;23.40;;;20.70;;
3433;SDS011;1730;41.932;25.548;2022-08-23T03:08:51;27.23;;;20.10;;
3433;SDS011;1730;41.932;25.548;2022-08-23T03:11:18;28.90;;;20.90;;
3433;SDS011;1730;41.932;25.548;2022-08-23T03:13:45;20.53;;;18.50;;
3433;SDS011;1730;41.932;25.548;2022-08-23T03:16:12;23.40;;;18.90;;
3433;SDS011;1730;41.932;25.548;2022-08-23T03:18:38;20.60;;;18.33;;
3433;SDS011;1730;41.932;25.548;2022-08-23T03:21:05;20.40;;;18.43;;
3433;SDS011;1730;41.932;25.548;2022-08-23T03:23:32;24.70;;;19.10;;
3433;SDS011;1730;41.932;25.548;2022-08-23T03:26:00;20.47;;;18.40;;
3433;SDS011;1730;41.932;25.548;2022-08-23T03:28:26;19.63;;;17.50;;
3433;SDS011;1730;41.932;25.548;2022-08-23T03:30:53;21.60;;;18.50;;
3433;SDS011;1730;41.932;25.548;2022-08-23T03:33:19;20.80;;;18.70;;
3433;SDS011;1730;41.932;25.548;2022-08-23T03:35:46;20.23;;;18.17;;
3433;SDS011;1730;41.932;25.548;2022-08-23T03:38:14;21.20;;;19.00;;
3433;SDS011;1730;41.932;25.548;2022-08-23T03:40:40;20.57;;;18.57;;
3433;SDS011;1730;41.932;25.548;2022-08-23T03:43:07;19.40;;;17.60;;
3433;SDS011;1730;41.932;25.548;2022-08-23T03:45:32;19.27;;;17.37;;
3433;SDS011;1730;41.932;25.548;2022-08-23T03:47:58;20.60;;;18.50;;
3433;SDS011;1730;41.932;25.548;2022-08-23T03:50:24;21.80;;;16.93;;
3433;SDS011;1730;41.932;25.548;2022-08-23T03:52:50;19.73;;;17.27;;
3433;SDS011;1730;41.932;25.548;2022-08-23T03:55:15;18.87;;;17.07;;
3433;SDS011;1730;41.932;25.548;2022-08-23T03:57:41;19.73;;;17.63;;
3433;SDS011;1730;41.932;25.548;2022-08-23T04:00:10;18.67;;;16.73;;
3433;SDS011;1730;41.932;25.548;2022-08-23T04:02:37;17.63;;;15.60;;
3433;SDS011;1730;41.932;25.548;2022-08-23T04:05:04;18.03;;;16.23;;
3433;SDS011;1730;41.932;25.548;2022-08-23T04:07:35;17.60;;;15.80;;
3433;SDS011;1730;41.932;25.548;2022-08-23T04:10:02;19.40;;;16.50;;
3433;SDS011;1730;41.932;25.548;2022-08-23T04:12:28;18.03;;;16.23;;
3433;SDS011;1730;41.932;25.548;2022-08-23T04:14:54;17.63;;;16.03;;
3433;SDS011;1730;41.932;25.548;2022-08-23T04:17:20;16.73;;;15.10;;
3433;SDS011;1730;41.932;25.548;2022-08-23T04:19:46;15.83;;;14.33;;
3433;SDS011;1730;41.932;25.548;2022-08-23T04:22:12;15.57;;;14.10;;
3433;SDS011;1730;41.932;25.548;2022-08-23T04:24:39;15.00;;;13.60;;
3433;SDS011;1730;41.932;25.548;2022-08-23T04:27:06;15.90;;;14.37;;
3433;SDS011;1730;41.932;25.548;2022-08-23T04:29:32;15.53;;;14.03;;
3433;SDS011;1730;41.932;25.548;2022-08-23T04:32:00;14.67;;;13.13;;
3433;SDS011;1730;41.932;25.548;2022-08-23T04:34:37;15.30;;;13.73;;
3433;SDS011;1730;41.932;25.548;2022-08-23T04:37:07;14.47;;;13.07;;
3433;SDS011;1730;41.932;25.548;2022-08-23T04:39:34;14.07;;;12.87;;
3433;SDS011;1730;41.932;25.548;2022-08-23T04:42:21;13.90;;;12.50;;
3433;SDS011;1730;41.932;25.548;2022-08-23T04:44:47;14.50;;;12.87;;
3433;SDS011;1730;41.932;25.548;2022-08-23T04:47:13;13.80;;;12.60;;
3433;SDS011;1730;41.932;25.548;2022-08-23T04:49:39;14.23;;;12.73;;
3433;SDS011;1730;41.932;25.548;2022-08-23T04:52:06;12.83;;;11.73;;
3433;SDS011;1730;41.932;25.548;2022-08-23T04:54:31;13.00;;;11.80;;
3433;SDS011;1730;41.932;25.548;2022-08-23T04:56:58;13.10;;;11.90;;
3433;SDS011;1730;41.932;25.548;2022-08-23T04:59:24;13.80;;;12.43;;
3433;SDS011;1730;41.932;25.548;2022-08-23T05:01:50;21.70;;;12.10;;
3433;SDS011;1730;41.932;25.548;2022-08-23T05:04:17;12.17;;;11.20;;
3433;SDS011;1730;41.932;25.548;2022-08-23T05:06:43;11.87;;;10.87;;
3433;SDS011;1730;41.932;25.548;2022-08-23T05:09:10;15.80;;;10.17;;
3433;SDS011;1730;41.932;25.548;2022-08-23T05:11:35;10.97;;;10.07;;
3433;SDS011;1730;41.932;25.548;2022-08-23T05:14:01;14.33;;;10.70;;
3433;SDS011;1730;41.932;25.548;2022-08-23T05:16:26;13.93;;;10.40;;
3433;SDS011;1730;41.932;25.548;2022-08-23T05:18:55;9.83;;;8.77;;
3433;SDS011;1730;41.932;25.548;2022-08-23T05:21:26;10.40;;;9.50;;
3433;SDS011;1730;41.932;25.548;2022-08-23T05:23:52;11.33;;;10.43;;
3433;SDS011;1730;41.932;25.548;2022-08-23T05:26:17;12.50;;;9.90;;
3433;SDS011;1730;41.932;25.548;2022-08-23T05:28:45;11.70;;;10.07;;
3433;SDS011;1730;41.932;25.548;2022-08-23T05:31:13;9.63;;;8.80;;
3433;SDS011;1730;41.932;25.548;2022-08-23T05:33:44;10.00;;;9.20;;
3433;SDS011;1730;41.932;25.548;2022-08-23T05:36:11;9.53;;;8.80;;
3433;SDS011;1730;41.932;25.548;2022-08-23T05:38:39;13.40;;;10.20;;
3433;SDS011;1730;41.932;25.548;2022-08-23T05:41:05;11.17;;;10.27;;
3433;SDS011;1730;41.932;25.548;2022-08-23T05:43:31;4.97;;;4.77;;
3433;SDS011;1730;41.932;25.548;2022-08-23T05:46:20;8.53;;;7.83;;
3433;SDS011;1730;41.932;25.548;2022-08-23T05:48:45;6.97;;;6.47;;
3433;SDS011;1730;41.932;25.548;2022-08-23T05:51:19;7.50;;;6.80;;
3433;SDS011;1730;41.932;25.548;2022-08-23T05:53:45;11.00;;;7.70;;
3433;SDS011;1730;41.932;25.548;2022-08-23T05:58:46;9.33;;;8.63;;
3433;SDS011;1730;41.932;25.548;2022-08-23T06:01:13;8.57;;;7.87;;
3433;SDS011;1730;41.932;25.548;2022-08-23T06:03:40;8.63;;;7.70;;
3433;SDS011;1730;41.932;25.548;2022-08-23T06:06:07;9.90;;;8.03;;
3433;SDS011;1730;41.932;25.548;2022-08-23T06:08:34;7.80;;;7.10;;
3433;SDS011;1730;41.932;25.548;2022-08-23T06:11:04;7.20;;;6.47;;
3433;SDS011;1730;41.932;25.548;2022-08-23T06:13:32;8.33;;;7.53;;
3433;SDS011;1730;41.932;25.548;2022-08-23T06:15:58;9.60;;;7.60;;
3433;SDS011;1730;41.932;25.548;2022-08-23T06:18:25;8.13;;;7.47;;
3433;SDS011;1730;41.932;25.548;2022-08-23T06:21:05;17.83;;;11.00;;
3433;SDS011;1730;41.932;25.548;2022-08-23T06:23:32;14.80;;;10.40;;
3433;SDS011;1730;41.932;25.548;2022-08-23T06:25:59;10.00;;;8.40;;
3433;SDS011;1730;41.932;25.548;2022-08-23T06:28:27;8.40;;;6.87;;
3433;SDS011;1730;41.932;25.548;2022-08-23T06:30:54;9.13;;;8.33;;
3433;SDS011;1730;41.932;25.548;2022-08-23T06:33:21;7.70;;;7.10;;
3433;SDS011;1730;41.932;25.548;2022-08-23T06:35:47;7.50;;;7.10;;
3433;SDS011;1730;41.932;25.548;2022-08-23T06:38:15;8.27;;;7.67;;
3433;SDS011;1730;41.932;25.548;2022-08-23T06:40:41;7.70;;;7.10;;
3433;SDS011;1730;41.932;25.548;2022-08-23T06:43:07;7.90;;;7.13;;
3433;SDS011;1730;41.932;25.548;2022-08-23T06:45:33;8.73;;;6.63;;
3433;SDS011;1730;41.932;25.548;2022-08-23T06:47:59;7.53;;;7.00;;
3433;SDS011;1730;41.932;25.548;2022-08-23T06:50:24;7.70;;;7.23;;
3433;SDS011;1730;41.932;25.548;2022-08-23T06:52:50;7.10;;;6.50;;
3433;SDS011;1730;41.932;25.548;2022-08-23T06:55:17;7.90;;;7.17;;
3433;SDS011;1730;41.932;25.548;2022-08-23T06:57:42;7.90;;;7.10;;
3433;SDS011;1730;41.932;25.548;2022-08-23T07:00:09;10.03;;;8.13;;
3433;SDS011;1730;41.932;25.548;2022-08-23T07:02:36;10.83;;;8.07;;
3433;SDS011;1730;41.932;25.548;2022-08-23T07:05:02;8.00;;;7.40;;
3433;SDS011;1730;41.932;25.548;2022-08-23T07:07:28;7.93;;;7.07;;
3433;SDS011;1730;41.932;25.548;2022-08-23T07:09:54;9.43;;;8.43;;
3433;SDS011;1730;41.932;25.548;2022-08-23T07:12:20;9.30;;;7.80;;
3433;SDS011;1730;41.932;25.548;2022-08-23T07:14:46;8.73;;;7.87;;
3433;SDS011;1730;41.932;25.548;2022-08-23T07:17:12;8.20;;;7.50;;
3433;SDS011;1730;41.932;25.548;2022-08-23T07:19:38;9.90;;;8.87;;
3433;SDS011;1730;41.932;25.548;2022-08-23T07:22:05;11.20;;;10.10;;
3433;SDS011;1730;41.932;25.548;2022-08-23T07:24:31;10.73;;;9.60;;
3433;SDS011;1730;41.932;25.548;2022-08-23T07:26:57;10.67;;;9.43;;
3433;SDS011;1730;41.932;25.548;2022-08-23T07:29:25;10.83;;;9.83;;
3433;SDS011;1730;41.932;25.548;2022-08-23T07:31:54;9.90;;;9.00;;
3433;SDS011;1730;41.932;25.548;2022-08-23T07:34:20;12.50;;;11.03;;
3433;SDS011;1730;41.932;25.548;2022-08-23T07:36:46;11.10;;;10.00;;
3433;SDS011;1730;41.932;25.548;2022-08-23T07:39:14;16.23;;;13.60;;
3433;SDS011;1730;41.932;25.548;2022-08-23T07:41:41;13.90;;;12.30;;
3433;SDS011;1730;41.932;25.548;2022-08-23T07:44:09;25.50;;;15.90;;
3433;SDS011;1730;41.932;25.548;2022-08-23T07:46:38;23.60;;;16.60;;
3433;SDS011;1730;41.932;25.548;2022-08-23T07:49:05;19.47;;;15.23;;
3433;SDS011;1730;41.932;25.548;2022-08-23T07:51:32;24.50;;;14.23;;
3433;SDS011;1730;41.932;25.548;2022-08-23T07:54:03;16.70;;;15.00;;
3433;SDS011;1730;41.932;25.548;2022-08-23T07:56:30;17.23;;;15.43;;
3433;SDS011;1730;41.932;25.548;2022-08-23T07:58:57;21.70;;;16.50;;
3433;SDS011;1730;41.932;25.548;2022-08-23T08:01:24;18.07;;;16.17;;
3433;SDS011;1730;41.932;25.548;2022-08-23T08:03:51;17.70;;;15.80;;
3433;SDS011;1730;41.932;25.548;2022-08-23T08:06:22;16.97;;;14.57;;
3433;SDS011;1730;41.932;25.548;2022-08-23T08:08:59;21.00;;;15.30;;
3433;SDS011;1730;41.932;25.548;2022-08-23T08:11:26;18.10;;;15.07;;
3433;SDS011;1730;41.932;25.548;2022-08-23T08:13:54;18.07;;;16.10;;
3433;SDS011;1730;41.932;25.548;2022-08-23T08:16:29;17.30;;;15.50;;
3433;SDS011;1730;41.932;25.548;2022-08-23T08:18:58;23.03;;;17.10;;
3433;SDS011;1730;41.932;25.548;2022-08-23T08:21:25;19.40;;;15.50;;
3433;SDS011;1730;41.932;25.548;2022-08-23T08:23:52;17.50;;;15.60;;
3433;SDS011;1730;41.932;25.548;2022-08-23T08:26:19;20.97;;;16.83;;
3433;SDS011;1730;41.932;25.548;2022-08-23T08:28:46;22.43;;;16.40;;
3433;SDS011;1730;41.932;25.548;2022-08-23T08:31:12;18.50;;;16.57;;
3433;SDS011;1730;41.932;25.548;2022-08-23T08:33:38;25.00;;;17.70;;
3433;SDS011;1730;41.932;25.548;2022-08-23T08:36:05;18.53;;;16.57;;
3433;SDS011;1730;41.932;25.548;2022-08-23T08:38:33;17.40;;;15.70;;
3433;SDS011;1730;41.932;25.548;2022-08-23T08:46:23;20.03;;;17.07;;
3433;SDS011;1730;41.932;25.548;2022-08-23T08:48:59;20.30;;;18.20;;
3433;SDS011;1730;41.932;25.548;2022-08-23T08:54:00;18.60;;;16.50;;
3433;SDS011;1730;41.932;25.548;2022-08-23T08:56:30;20.00;;;16.20;;
3433;SDS011;1730;41.932;25.548;2022-08-23T08:59:02;32.37;;;15.17;;
3433;SDS011;1730;41.932;25.548;2022-08-23T09:01:31;22.10;;;17.40;;
3433;SDS011;1730;41.932;25.548;2022-08-23T09:03:59;17.97;;;16.17;;
3433;SDS011;1730;41.932;25.548;2022-08-23T09:17:15;22.60;;;17.30;;
3433;SDS011;1730;41.932;25.548;2022-08-23T09:19:42;19.70;;;15.80;;
3433;SDS011;1730;41.932;25.548;2022-08-23T09:22:12;19.70;;;17.70;;
3433;SDS011;1730;41.932;25.548;2022-08-23T09:24:43;20.70;;;18.70;;
3433;SDS011;1730;41.932;25.548;2022-08-23T09:27:09;21.13;;;18.80;;
3433;SDS011;1730;41.932;25.548;2022-08-23T09:29:37;21.00;;;18.30;;
3433;SDS011;1730;41.932;25.548;2022-08-23T09:33:17;18.77;;;16.90;;
3433;SDS011;1730;41.932;25.548;2022-08-23T09:35:12;20.00;;;18.07;;
3433;SDS011;1730;41.932;25.548;2022-08-23T09:38:16;23.10;;;19.37;;
3433;SDS011;1730;41.932;25.548;2022-08-23T09:40:46;23.13;;;20.83;;
3433;SDS011;1730;41.932;25.548;2022-08-23T09:43:17;22.00;;;19.80;;
3433;SDS011;1730;41.932;25.548;2022-08-23T09:48:43;17.57;;;16.17;;
3433;SDS011;1730;41.932;25.548;2022-08-23T09:56:42;20.93;;;18.80;;
3433;SDS011;1730;41.932;25.548;2022-08-23T09:59:22;21.77;;;19.77;;
3433;SDS011;1730;41.932;25.548;2022-08-23T10:02:02;23.70;;;21.40;;
3433;SDS011;1730;41.932;25.548;2022-08-23T10:04:38;19.43;;;16.43;;
3433;SDS011;1730;41.932;25.548;2022-08-23T10:07:25;21.43;;;17.47;;
3433;SDS011;1730;41.932;25.548;2022-08-23T10:09:53;18.63;;;16.90;;
3433;SDS011;1730;41.932;25.548;2022-08-23T10:12:19;17.47;;;15.80;;
3433;SDS011;1730;41.932;25.548;2022-08-23T10:14:45;23.53;;;21.40;;
3433;SDS011;1730;41.932;25.548;2022-08-23T10:17:45;17.47;;;16.07;;
3433;SDS011;1730;41.932;25.548;2022-08-23T10:25:37;18.07;;;16.03;;
3433;SDS011;1730;41.932;25.548;2022-08-23T10:28:15;19.13;;;17.27;;
3433;SDS011;1730;41.932;25.548;2022-08-23T10:31:13;21.23;;;18.23;;
3433;SDS011;1730;41.932;25.548;2022-08-23T10:36:38;18.17;;;16.33;;
3433;SDS011;1730;41.932;25.548;2022-08-23T10:39:22;20.53;;;18.73;;
3433;SDS011;1730;41.932;25.548;2022-08-23T10:44:39;19.57;;;17.97;;
3433;SDS011;1730;41.932;25.548;2022-08-23T10:49:47;17.80;;;16.00;;
3433;SDS011;1730;41.932;25.548;2022-08-23T10:52:16;20.40;;;18.40;;
3433;SDS011;1730;41.932;25.548;2022-08-23T10:54:55;18.87;;;17.07;;
3433;SDS011;1730;41.932;25.548;2022-08-23T10:57:30;19.20;;;17.50;;
3433;SDS011;1730;41.932;25.548;2022-08-23T10:59:59;21.97;;;20.17;;
3433;SDS011;1730;41.932;25.548;2022-08-23T11:05:24;18.60;;;16.57;;
3433;SDS011;1730;41.932;25.548;2022-08-23T11:16:06;14.63;;;13.33;;
3433;SDS011;1730;41.932;25.548;2022-08-23T11:18:45;16.20;;;14.60;;
3433;SDS011;1730;41.932;25.548;2022-08-23T11:28:48;15.40;;;14.07;;
3433;SDS011;1730;41.932;25.548;2022-08-23T11:31:25;14.57;;;13.37;;
3433;SDS011;1730;41.932;25.548;2022-08-23T11:34:00;14.33;;;13.20;;
3433;SDS011;1730;41.932;25.548;2022-08-23T11:36:30;16.13;;;14.80;;
3433;SDS011;1730;41.932;25.548;2022-08-23T11:41:29;15.77;;;14.10;;
3433;SDS011;1730;41.932;25.548;2022-08-23T11:49:13;12.57;;;11.63;;
3433;SDS011;1730;41.932;25.548;2022-08-23T11:57:44;13.77;;;12.43;;
3433;SDS011;1730;41.932;25.548;2022-08-23T12:02:57;15.43;;;13.00;;
3433;SDS011;1730;41.932;25.548;2022-08-23T12:18:49;14.17;;;12.93;;
3433;SDS011;1730;41.932;25.548;2022-08-23T12:24:53;15.30;;;14.00;;
3433;SDS011;1730;41.932;25.548;2022-08-23T12:50:27;14.30;;;13.00;;
3433;SDS011;1730;41.932;25.548;2022-08-23T12:53:02;12.60;;;11.70;;
3433;SDS011;1730;41.932;25.548;2022-08-23T12:58:27;13.30;;;12.30;;
3433;SDS011;1730;41.932;25.548;2022-08-23T13:00:58;14.10;;;11.90;;
3433;SDS011;1730;41.932;25.548;2022-08-23T13:03:28;14.43;;;11.77;;
3433;SDS011;1730;41.932;25.548;2022-08-23T13:06:10;16.33;;;11.60;;
3433;SDS011;1730;41.932;25.548;2022-08-23T13:08:40;13.80;;;12.27;;
3433;SDS011;1730;41.932;25.548;2022-08-23T13:11:13;12.00;;;10.90;;
3433;SDS011;1730;41.932;25.548;2022-08-23T13:13:44;12.37;;;11.17;;
3433;SDS011;1730;41.932;25.548;2022-08-23T13:16:30;14.60;;;10.37;;
3433;SDS011;1730;41.932;25.548;2022-08-23T13:19:16;12.63;;;11.33;;
3433;SDS011;1730;41.932;25.548;2022-08-23T13:22:19;12.30;;;11.17;;
3433;SDS011;1730;41.932;25.548;2022-08-23T13:27:35;11.90;;;10.30;;
3433;SDS011;1730;41.932;25.548;2022-08-23T13:40:39;11.80;;;9.23;;
3433;SDS011;1730;41.932;25.548;2022-08-23T13:43:07;10.53;;;9.73;;
3433;SDS011;1730;41.932;25.548;2022-08-23T13:45:42;10.40;;;9.50;;
3433;SDS011;1730;41.932;25.548;2022-08-23T13:48:13;11.60;;;10.57;;
3433;SDS011;1730;41.932;25.548;2022-08-23T13:50:42;10.03;;;9.13;;
3433;SDS011;1730;41.932;25.548;2022-08-23T13:53:09;11.10;;;9.73;;
3433;SDS011;1730;41.932;25.548;2022-08-23T13:55:38;11.33;;;9.27;;
3433;SDS011;1730;41.932;25.548;2022-08-23T13:58:10;9.90;;;9.00;;
3433;SDS011;1730;41.932;25.548;2022-08-23T14:00:38;11.60;;;9.87;;
3433;SDS011;1730;41.932;25.548;2022-08-23T14:03:04;10.47;;;9.40;;
3433;SDS011;1730;41.932;25.548;2022-08-23T14:05:30;9.90;;;9.20;;
3433;SDS011;1730;41.932;25.548;2022-08-23T14:07:56;15.77;;;9.63;;
3433;SDS011;1730;41.932;25.548;2022-08-23T14:10:22;12.63;;;11.43;;
3433;SDS011;1730;41.932;25.548;2022-08-23T14:12:49;11.33;;;10.33;;
3433;SDS011;1730;41.932;25.548;2022-08-23T14:15:17;10.47;;;9.70;;
3433;SDS011;1730;41.932;25.548;2022-08-23T14:17:46;10.60;;;9.63;;
3433;SDS011;1730;41.932;25.548;2022-08-23T14:20:14;10.87;;;10.03;;
3433;SDS011;1730;41.932;25.548;2022-08-23T14:22:42;11.17;;;10.10;;
3433;SDS011;1730;41.932;25.548;2022-08-23T14:25:15;10.87;;;9.83;;
3433;SDS011;1730;41.932;25.548;2022-08-23T14:27:41;13.03;;;9.27;;
3433;SDS011;1730;41.932;25.548;2022-08-23T14:30:10;11.53;;;10.03;;
3433;SDS011;1730;41.932;25.548;2022-08-23T14:32:49;11.30;;;10.20;;
3433;SDS011;1730;41.932;25.548;2022-08-23T14:35:16;9.67;;;8.97;;
3433;SDS011;1730;41.932;25.548;2022-08-23T14:37:41;10.13;;;9.33;;
3433;SDS011;1730;41.932;25.548;2022-08-23T14:40:07;9.90;;;9.00;;
3433;SDS011;1730;41.932;25.548;2022-08-23T14:42:33;13.13;;;10.47;;
3433;SDS011;1730;41.932;25.548;2022-08-23T14:44:59;13.60;;;10.70;;
3433;SDS011;1730;41.932;25.548;2022-08-23T14:47:25;11.87;;;10.43;;
3433;SDS011;1730;41.932;25.548;2022-08-23T14:49:51;11.03;;;10.07;;
3433;SDS011;1730;41.932;25.548;2022-08-23T14:52:17;10.30;;;9.43;;
3433;SDS011;1730;41.932;25.548;2022-08-23T14:54:43;10.00;;;9.10;;
3433;SDS011;1730;41.932;25.548;2022-08-23T14:57:09;10.93;;;10.07;;
3433;SDS011;1730;41.932;25.548;2022-08-23T14:59:35;10.73;;;9.20;;
3433;SDS011;1730;41.932;25.548;2022-08-23T15:02:02;10.77;;;9.70;;
3433;SDS011;1730;41.932;25.548;2022-08-23T15:04:28;10.43;;;9.13;;
3433;SDS011;1730;41.932;25.548;2022-08-23T15:07:01;9.47;;;8.83;;
3433;SDS011;1730;41.932;25.548;2022-08-23T15:09:28;9.97;;;8.73;;
3433;SDS011;1730;41.932;25.548;2022-08-23T15:11:54;13.10;;;8.90;;
3433;SDS011;1730;41.932;25.548;2022-08-23T15:14:21;9.73;;;8.80;;
3433;SDS011;1730;41.932;25.548;2022-08-23T15:16:47;9.67;;;8.77;;
3433;SDS011;1730;41.932;25.548;2022-08-23T15:19:12;10.40;;;9.40;;
3433;SDS011;1730;41.932;25.548;2022-08-23T15:21:38;9.33;;;8.60;;
3433;SDS011;1730;41.932;25.548;2022-08-23T15:24:04;9.70;;;8.80;;
3433;SDS011;1730;41.932;25.548;2022-08-23T15:26:31;9.73;;;8.87;;
3433;SDS011;1730;41.932;25.548;2022-08-23T15:28:58;10.60;;;9.67;;
3433;SDS011;1730;41.932;25.548;2022-08-23T15:31:24;10.03;;;9.23;;
3433;SDS011;1730;41.932;25.548;2022-08-23T15:33:50;12.63;;;9.40;;
3433;SDS011;1730;41.932;25.548;2022-08-23T15:36:16;9.30;;;8.60;;
3433;SDS011;1730;41.932;25.548;2022-08-23T15:38:42;9.90;;;9.00;;
3433;SDS011;1730;41.932;25.548;2022-08-23T15:41:09;10.67;;;8.67;;
3433;SDS011;1730;41.932;25.548;2022-08-23T15:43:35;10.00;;;9.10;;
3433;SDS011;1730;41.932;25.548;2022-08-23T15:46:04;13.83;;;8.80;;
3433;SDS011;1730;41.932;25.548;2022-08-23T15:48:33;12.30;;;9.23;;
3433;SDS011;1730;41.932;25.548;2022-08-23T15:51:02;11.00;;;9.70;;
3433;SDS011;1730;41.932;25.548;2022-08-23T15:53:30;11.30;;;10.23;;
3433;SDS011;1730;41.932;25.548;2022-08-23T15:55:55;8.90;;;8.00;;
3433;SDS011;1730;41.932;25.548;2022-08-23T15:58:23;10.10;;;9.20;;
3433;SDS011;1730;41.932;25.548;2022-08-23T16:00:50;12.20;;;9.50;;
3433;SDS011;1730;41.932;25.548;2022-08-23T16:03:19;10.60;;;9.63;;
3433;SDS011;1730;41.932;25.548;2022-08-23T16:05:47;12.33;;;9.57;;
3433;SDS011;1730;41.932;25.548;2022-08-23T16:08:26;15.03;;;10.23;;
3433;SDS011;1730;41.932;25.548;2022-08-23T16:10:59;10.83;;;9.93;;
3433;SDS011;1730;41.932;25.548;2022-08-23T16:13:26;11.60;;;10.40;;
3433;SDS011;1730;41.932;25.548;2022-08-23T16:15:52;17.10;;;10.23;;
3433;SDS011;1730;41.932;25.548;2022-08-23T16:18:35;11.83;;;11.00;;
3433;SDS011;1730;41.932;25.548;2022-08-23T16:21:05;14.33;;;10.60;;
3433;SDS011;1730;41.932;25.548;2022-08-23T16:23:40;12.53;;;11.27;;
3433;SDS011;1730;41.932;25.548;2022-08-23T16:29:22;17.73;;;11.67;;
3433;SDS011;1730;41.932;25.548;2022-08-23T16:35:05;11.80;;;10.73;;
3433;SDS011;1730;41.932;25.548;2022-08-23T16:37:36;17.73;;;12.07;;
3433;SDS011;1730;41.932;25.548;2022-08-23T16:40:14;13.33;;;12.13;;
3433;SDS011;1730;41.932;25.548;2022-08-23T16:42:58;13.63;;;12.43;;
3433;SDS011;1730;41.932;25.548;2022-08-23T17:04:51;33.03;;;17.93;;
3433;SDS011;1730;41.932;25.548;2022-08-23T17:07:19;21.53;;;16.10;;
3433;SDS011;1730;41.932;25.548;2022-08-23T17:09:48;30.00;;;17.93;;
3433;SDS011;1730;41.932;25.548;2022-08-23T17:12:19;21.67;;;19.30;;
3433;SDS011;1730;41.932;25.548;2022-08-23T17:14:46;30.60;;;20.60;;
3433;SDS011;1730;41.932;25.548;2022-08-23T17:17:16;26.93;;;22.27;;
3433;SDS011;1730;41.932;25.548;2022-08-23T17:19:43;28.03;;;20.90;;
3433;SDS011;1730;41.932;25.548;2022-08-23T17:22:11;27.03;;;22.67;;
3433;SDS011;1730;41.932;25.548;2022-08-23T17:39:57;33.80;;;25.23;;
3433;SDS011;1730;41.932;25.548;2022-08-23T17:42:24;33.83;;;23.70;;
3433;SDS011;1730;41.932;25.548;2022-08-23T17:44:50;37.83;;;25.23;;
3433;SDS011;1730;41.932;25.548;2022-08-23T17:47:16;47.47;;;33.00;;
3433;SDS011;1730;41.932;25.548;2022-08-23T17:49:44;38.47;;;28.23;;
3433;SDS011;1730;41.932;25.548;2022-08-23T17:52:13;36.63;;;28.10;;
3433;SDS011;1730;41.932;25.548;2022-08-23T17:54:41;48.10;;;29.30;;
3433;SDS011;1730;41.932;25.548;2022-08-23T17:57:08;28.83;;;21.23;;